sensor_id;sensor_type;location;lat;lon;timestamp;temperature;humidity
15556;DHT22;7879;48.660;9.116;2023-12-20T00:02:11;4.80;99.90
15556;DHT22;7879;48.660;9.116;2023-12-20T00:04:38;4.80;99.90
15556;DHT22;7879;48.660;9.116;2023-12-20T00:07:05;4.80;99.90
15556;DHT22;7879;48.660;9.116;2023-12-20T00:09:32;4.70;99.90
15556;DHT22;7879;48.660;9.116;2023-12-20T00:11:59;4.70;99.90
15556;DHT22;7879;48.660;9.116;2023-12-20T00:14:26;4.70;99.90
15556;DHT22;7879;48.660;9.116;2023-12-20T00:16:52;4.70;99.90
15556;DHT22;7879;48.660;9.116;2023-12-20T00:19:19;4.70;99.90
15556;DHT22;7879;48.660;9.116;2023-12-20T00:21:46;4.80;99.90
15556;DHT22;7879;48.660;9.116;2023-12-20T00:24:13;4.80;99.90
15556;DHT22;7879;48.660;9.116;2023-12-20T00:26:40;4.80;99.90
15556;DHT22;7879;48.660;9.116;2023-12-20T00:29:07;4.80;99.90
15556;DHT22;7879;48.660;9.116;2023-12-20T00:31:33;4.80;99.90
15556;DHT22;7879;48.660;9.116;2023-12-20T00:34:00;4.80;99.90
15556;DHT22;7879;48.660;9.116;2023-12-20T00:36:27;4.80;99.90
15556;DHT22;7879;48.660;9.116;2023-12-20T00:38:54;4.80;99.90
15556;DHT22;7879;48.660;9.116;2023-12-20T00:41:21;4.80;99.90
15556;DHT22;7879;48.660;9.116;2023-12-20T00:43:48;4.80;99.90
15556;DHT22;7879;48.660;9.116;2023-12-20T00:46:15;4.80;99.90
15556;DHT22;7879;48.660;9.116;2023-12-20T00:48:42;4.80;99.90
15556;DHT22;7879;48.660;9.116;2023-12-20T00:51:10;4.80;99.90
15556;DHT22;7879;48.660;9.116;2023-12-20T00:53:36;4.80;99.90
15556;DHT22;7879;48.660;9.116;2023-12-20T00:56:03;4.80;99.90
15556;DHT22;7879;48.660;9.116;2023-12-20T00:58:30;4.70;99.90
15556;DHT22;7879;48.660;9.116;2023-12-20T01:00:57;4.70;99.90
15556;DHT22;7879;48.660;9.116;2023-12-20T01:03:25;4.80;99.90
15556;DHT22;7879;48.660;9.116;2023-12-20T01:05:51;4.80;99.90
15556;DHT22;7879;48.660;9.116;2023-12-20T01:08:18;4.80;99.90
15556;DHT22;7879;48.660;9.116;2023-12-20T01:10:45;4.80;99.90
15556;DHT22;7879;48.660;9.116;2023-12-20T01:13:13;4.80;99.90
15556;DHT22;7879;48.660;9.116;2023-12-20T01:15:40;4.70;99.90
15556;DHT22;7879;48.660;9.116;2023-12-20T01:18:07;4.70;99.90
15556;DHT22;7879;48.660;9.116;2023-12-20T01:20:33;4.70;99.90
15556;DHT22;7879;48.660;9.116;2023-12-20T01:23:00;4.70;99.90
15556;DHT22;7879;48.660;9.116;2023-12-20T01:25:27;4.70;99.90
15556;DHT22;7879;48.660;9.116;2023-12-20T01:27:54;4.70;99.90
15556;DHT22;7879;48.660;9.116;2023-12-20T01:30:21;4.60;99.90
15556;DHT22;7879;48.660;9.116;2023-12-20T01:32:47;4.70;99.90
15556;DHT22;7879;48.660;9.116;2023-12-20T01:35:14;4.60;99.90
15556;DHT22;7879;48.660;9.116;2023-12-20T01:37:41;4.60;99.90
15556;DHT22;7879;48.660;9.116;2023-12-20T01:40:09;4.60;99.90
15556;DHT22;7879;48.660;9.116;2023-12-20T01:42:36;4.60;99.90
15556;DHT22;7879;48.660;9.116;2023-12-20T01:45:03;4.60;99.90
15556;DHT22;7879;48.660;9.116;2023-12-20T01:47:30;4.60;99.90
15556;DHT22;7879;48.660;9.116;2023-12-20T01:49:57;4.60;99.90
15556;DHT22;7879;48.660;9.116;2023-12-20T01:52:25;4.60;99.90
15556;DHT22;7879;48.660;9.116;2023-12-20T01:54:53;4.60;99.90
15556;DHT22;7879;48.660;9.116;2023-12-20T01:57:23;4.60;99.90
15556;DHT22;7879;48.660;9.116;2023-12-20T01:59:50;4.60;99.90
15556;DHT22;7879;48.660;9.116;2023-12-20T02:02:17;4.50;99.90
15556;DHT22;7879;48.660;9.116;2023-12-20T02:04:43;4.50;99.90
15556;DHT22;7879;48.660;9.116;2023-12-20T02:07:11;4.50;99.90
15556;DHT22;7879;48.660;9.116;2023-12-20T02:09:38;4.50;99.90
15556;DHT22;7879;48.660;9.116;2023-12-20T02:12:06;4.60;99.90
15556;DHT22;7879;48.660;9.116;2023-12-20T02:14:33;4.50;99.90
15556;DHT22;7879;48.660;9.116;2023-12-20T02:17:00;4.50;99.90
15556;DHT22;7879;48.660;9.116;2023-12-20T02:19:27;4.50;99.90
15556;DHT22;7879;48.660;9.116;2023-12-20T02:22:08;4.50;99.90
15556;DHT22;7879;48.660;9.116;2023-12-20T02:24:35;4.50;99.90
15556;DHT22;7879;48.660;9.116;2023-12-20T02:27:02;4.50;99.90
15556;DHT22;7879;48.660;9.116;2023-12-20T02:29:29;4.50;99.90
15556;DHT22;7879;48.660;9.116;2023-12-20T02:31:57;4.50;99.90
15556;DHT22;7879;48.660;9.116;2023-12-20T02:34:24;4.50;99.90
15556;DHT22;7879;48.660;9.116;2023-12-20T02:36:51;4.50;99.90
15556;DHT22;7879;48.660;9.116;2023-12-20T02:39:18;4.50;99.90
15556;DHT22;7879;48.660;9.116;2023-12-20T02:41:45;4.50;99.90
15556;DHT22;7879;48.660;9.116;2023-12-20T02:44:11;4.50;99.90
15556;DHT22;7879;48.660;9.116;2023-12-20T02:46:38;4.50;99.90
15556;DHT22;7879;48.660;9.116;2023-12-20T02:49:06;4.50;99.90
15556;DHT22;7879;48.660;9.116;2023-12-20T02:51:33;4.50;99.90
15556;DHT22;7879;48.660;9.116;2023-12-20T02:54:00;4.50;99.90
15556;DHT22;7879;48.660;9.116;2023-12-20T02:56:26;4.50;99.90
15556;DHT22;7879;48.660;9.116;2023-12-20T02:58:53;4.50;99.90
15556;DHT22;7879;48.660;9.116;2023-12-20T03:01:20;4.50;99.90
15556;DHT22;7879;48.660;9.116;2023-12-20T03:03:47;4.50;99.90
15556;DHT22;7879;48.660;9.116;2023-12-20T03:06:17;4.50;99.90
15556;DHT22;7879;48.660;9.116;2023-12-20T03:08:45;4.40;99.90
15556;DHT22;7879;48.660;9.116;2023-12-20T03:11:12;4.50;99.90
15556;DHT22;7879;48.660;9.116;2023-12-20T03:13:39;4.50;99.90
15556;DHT22;7879;48.660;9.116;2023-12-20T03:16:10;4.50;99.90
15556;DHT22;7879;48.660;9.116;2023-12-20T03:18:37;4.40;99.90
15556;DHT22;7879;48.660;9.116;2023-12-20T03:21:04;4.40;99.90
15556;DHT22;7879;48.660;9.116;2023-12-20T03:23:31;4.50;99.90
15556;DHT22;7879;48.660;9.116;2023-12-20T03:26:01;4.40;99.90
15556;DHT22;7879;48.660;9.116;2023-12-20T03:28:29;4.40;99.90
15556;DHT22;7879;48.660;9.116;2023-12-20T03:30:56;4.40;99.90
15556;DHT22;7879;48.660;9.116;2023-12-20T03:33:23;4.40;99.90
15556;DHT22;7879;48.660;9.116;2023-12-20T03:35:49;4.40;99.90
15556;DHT22;7879;48.660;9.116;2023-12-20T03:38:16;4.40;99.90
15556;DHT22;7879;48.660;9.116;2023-12-20T03:40:43;4.40;99.90
15556;DHT22;7879;48.660;9.116;2023-12-20T03:43:10;4.40;99.90
15556;DHT22;7879;48.660;9.116;2023-12-20T03:45:37;4.40;99.90
15556;DHT22;7879;48.660;9.116;2023-12-20T03:48:04;4.40;99.90
15556;DHT22;7879;48.660;9.116;2023-12-20T03:50:32;4.40;99.90
15556;DHT22;7879;48.660;9.116;2023-12-20T03:52:58;4.40;99.90
15556;DHT22;7879;48.660;9.116;2023-12-20T03:55:25;4.30;99.90
15556;DHT22;7879;48.660;9.116;2023-12-20T03:57:52;4.30;99.90
15556;DHT22;7879;48.660;9.116;2023-12-20T04:00:19;4.40;99.90
15556;DHT22;7879;48.660;9.116;2023-12-20T04:02:46;4.30;99.90
15556;DHT22;7879;48.660;9.116;2023-12-20T04:05:13;4.40;99.90
15556;DHT22;7879;48.660;9.116;2023-12-20T04:07:40;4.30;99.90
15556;DHT22;7879;48.660;9.116;2023-12-20T04:10:07;4.30;99.90
15556;DHT22;7879;48.660;9.116;2023-12-20T04:12:35;4.30;99.90
15556;DHT22;7879;48.660;9.116;2023-12-20T04:15:01;4.30;99.90
15556;DHT22;7879;48.660;9.116;2023-12-20T04:17:35;4.30;99.90
15556;DHT22;7879;48.660;9.116;2023-12-20T04:20:03;4.30;99.90
15556;DHT22;7879;48.660;9.116;2023-12-20T04:22:30;4.30;99.90
15556;DHT22;7879;48.660;9.116;2023-12-20T04:24:57;4.30;99.90
15556;DHT22;7879;48.660;9.116;2023-12-20T04:27:24;4.30;99.90
15556;DHT22;7879;48.660;9.116;2023-12-20T04:29:51;4.30;99.90
15556;DHT22;7879;48.660;9.116;2023-12-20T04:32:17;4.30;99.90
15556;DHT22;7879;48.660;9.116;2023-12-20T04:34:44;4.30;99.90
15556;DHT22;7879;48.660;9.116;2023-12-20T04:37:11;4.30;99.90
15556;DHT22;7879;48.660;9.116;2023-12-20T04:39:39;4.30;99.90
15556;DHT22;7879;48.660;9.116;2023-12-20T04:42:07;4.20;99.90
15556;DHT22;7879;48.660;9.116;2023-12-20T04:44:34;4.20;99.90
15556;DHT22;7879;48.660;9.116;2023-12-20T04:47:00;4.30;99.90
15556;DHT22;7879;48.660;9.116;2023-12-20T04:49:27;4.20;99.90
15556;DHT22;7879;48.660;9.116;2023-12-20T04:51:54;4.20;99.90
15556;DHT22;7879;48.660;9.116;2023-12-20T04:54:22;4.20;99.90
15556;DHT22;7879;48.660;9.116;2023-12-20T04:56:49;4.20;99.90
15556;DHT22;7879;48.660;9.116;2023-12-20T04:59:16;4.20;99.90
15556;DHT22;7879;48.660;9.116;2023-12-20T05:01:43;4.20;99.90
15556;DHT22;7879;48.660;9.116;2023-12-20T05:04:10;4.20;99.90
15556;DHT22;7879;48.660;9.116;2023-12-20T05:06:36;4.20;99.90
15556;DHT22;7879;48.660;9.116;2023-12-20T05:09:03;4.20;99.90
15556;DHT22;7879;48.660;9.116;2023-12-20T05:11:30;4.20;99.90
15556;DHT22;7879;48.660;9.116;2023-12-20T05:13:57;4.20;99.90
15556;DHT22;7879;48.660;9.116;2023-12-20T05:16:24;4.10;99.90
15556;DHT22;7879;48.660;9.116;2023-12-20T05:18:51;4.20;99.90
15556;DHT22;7879;48.660;9.116;2023-12-20T05:21:19;4.20;99.90
15556;DHT22;7879;48.660;9.116;2023-12-20T05:23:45;4.20;99.90
15556;DHT22;7879;48.660;9.116;2023-12-20T05:26:13;4.20;99.90
15556;DHT22;7879;48.660;9.116;2023-12-20T05:28:39;4.20;99.90
15556;DHT22;7879;48.660;9.116;2023-12-20T05:31:06;4.10;99.90
15556;DHT22;7879;48.660;9.116;2023-12-20T05:33:33;4.20;99.90
15556;DHT22;7879;48.660;9.116;2023-12-20T05:36:00;4.20;99.90
15556;DHT22;7879;48.660;9.116;2023-12-20T05:38:27;4.20;99.90
15556;DHT22;7879;48.660;9.116;2023-12-20T05:40:54;4.10;99.90
15556;DHT22;7879;48.660;9.116;2023-12-20T05:43:21;4.20;99.90
15556;DHT22;7879;48.660;9.116;2023-12-20T05:45:48;4.20;99.90
15556;DHT22;7879;48.660;9.116;2023-12-20T05:48:14;4.10;99.90
15556;DHT22;7879;48.660;9.116;2023-12-20T05:50:41;4.10;99.90
15556;DHT22;7879;48.660;9.116;2023-12-20T05:53:09;4.10;99.90
15556;DHT22;7879;48.660;9.116;2023-12-20T05:55:35;4.10;99.90
15556;DHT22;7879;48.660;9.116;2023-12-20T05:58:02;4.10;99.90
15556;DHT22;7879;48.660;9.116;2023-12-20T06:00:29;4.10;99.90
15556;DHT22;7879;48.660;9.116;2023-12-20T06:02:56;4.10;99.90
15556;DHT22;7879;48.660;9.116;2023-12-20T06:05:23;4.10;99.90
15556;DHT22;7879;48.660;9.116;2023-12-20T06:07:50;4.10;99.90
15556;DHT22;7879;48.660;9.116;2023-12-20T06:10:17;4.20;99.90
15556;DHT22;7879;48.660;9.116;2023-12-20T06:12:45;4.10;99.90
15556;DHT22;7879;48.660;9.116;2023-12-20T06:15:14;4.10;99.90
15556;DHT22;7879;48.660;9.116;2023-12-20T06:17:41;4.10;99.90
15556;DHT22;7879;48.660;9.116;2023-12-20T06:20:08;4.10;99.90
15556;DHT22;7879;48.660;9.116;2023-12-20T06:22:36;4.00;99.90
15556;DHT22;7879;48.660;9.116;2023-12-20T06:25:03;4.10;99.90
15556;DHT22;7879;48.660;9.116;2023-12-20T06:27:30;4.10;99.90
15556;DHT22;7879;48.660;9.116;2023-12-20T06:29:58;4.10;99.90
15556;DHT22;7879;48.660;9.116;2023-12-20T06:32:26;4.10;99.90
15556;DHT22;7879;48.660;9.116;2023-12-20T06:34:52;4.10;99.90
15556;DHT22;7879;48.660;9.116;2023-12-20T06:37:19;4.00;99.90
15556;DHT22;7879;48.660;9.116;2023-12-20T06:39:46;4.10;99.90
15556;DHT22;7879;48.660;9.116;2023-12-20T06:42:13;4.00;99.90
15556;DHT22;7879;48.660;9.116;2023-12-20T06:44:40;4.10;99.90
15556;DHT22;7879;48.660;9.116;2023-12-20T06:47:07;4.10;99.90
15556;DHT22;7879;48.660;9.116;2023-12-20T06:49:33;4.10;99.90
15556;DHT22;7879;48.660;9.116;2023-12-20T06:52:00;4.10;99.90
15556;DHT22;7879;48.660;9.116;2023-12-20T06:54:27;4.10;99.90
15556;DHT22;7879;48.660;9.116;2023-12-20T06:56:54;4.00;99.90
15556;DHT22;7879;48.660;9.116;2023-12-20T06:59:21;4.10;99.90
15556;DHT22;7879;48.660;9.116;2023-12-20T07:01:49;4.10;99.90
15556;DHT22;7879;48.660;9.116;2023-12-20T07:04:16;4.10;99.90
15556;DHT22;7879;48.660;9.116;2023-12-20T07:06:48;4.10;99.90
15556;DHT22;7879;48.660;9.116;2023-12-20T07:09:14;4.10;99.90
15556;DHT22;7879;48.660;9.116;2023-12-20T07:11:41;4.10;99.90
15556;DHT22;7879;48.660;9.116;2023-12-20T07:14:08;4.10;99.90
15556;DHT22;7879;48.660;9.116;2023-12-20T07:16:35;4.10;99.90
15556;DHT22;7879;48.660;9.116;2023-12-20T07:19:02;4.10;99.90
15556;DHT22;7879;48.660;9.116;2023-12-20T07:21:30;4.10;99.90
15556;DHT22;7879;48.660;9.116;2023-12-20T07:23:56;4.10;99.90
15556;DHT22;7879;48.660;9.116;2023-12-20T07:26:23;4.10;99.90
15556;DHT22;7879;48.660;9.116;2023-12-20T07:28:50;4.10;99.90
15556;DHT22;7879;48.660;9.116;2023-12-20T07:31:17;4.10;99.90
15556;DHT22;7879;48.660;9.116;2023-12-20T07:33:44;4.10;99.90
15556;DHT22;7879;48.660;9.116;2023-12-20T07:36:12;4.10;99.90
15556;DHT22;7879;48.660;9.116;2023-12-20T07:38:38;4.10;99.90
15556;DHT22;7879;48.660;9.116;2023-12-20T07:41:05;4.10;99.90
15556;DHT22;7879;48.660;9.116;2023-12-20T07:43:32;4.10;99.90
15556;DHT22;7879;48.660;9.116;2023-12-20T07:46:07;4.10;99.90
15556;DHT22;7879;48.660;9.116;2023-12-20T07:48:35;4.10;99.90
15556;DHT22;7879;48.660;9.116;2023-12-20T07:51:03;4.10;99.90
15556;DHT22;7879;48.660;9.116;2023-12-20T07:53:30;4.10;99.90
15556;DHT22;7879;48.660;9.116;2023-12-20T07:55:57;4.10;99.90
15556;DHT22;7879;48.660;9.116;2023-12-20T07:58:24;4.20;99.90
15556;DHT22;7879;48.660;9.116;2023-12-20T08:01:13;4.10;99.90
15556;DHT22;7879;48.660;9.116;2023-12-20T08:03:40;4.20;99.90
15556;DHT22;7879;48.660;9.116;2023-12-20T08:06:07;4.10;99.90
15556;DHT22;7879;48.660;9.116;2023-12-20T08:08:34;4.20;99.90
15556;DHT22;7879;48.660;9.116;2023-12-20T08:11:01;4.20;99.90
15556;DHT22;7879;48.660;9.116;2023-12-20T08:13:28;4.20;99.90
15556;DHT22;7879;48.660;9.116;2023-12-20T08:15:56;4.20;99.90
15556;DHT22;7879;48.660;9.116;2023-12-20T08:18:22;4.20;99.90
15556;DHT22;7879;48.660;9.116;2023-12-20T08:20:50;4.20;99.90
15556;DHT22;7879;48.660;9.116;2023-12-20T08:23:19;4.20;99.90
15556;DHT22;7879;48.660;9.116;2023-12-20T08:25:50;4.20;99.90
15556;DHT22;7879;48.660;9.116;2023-12-20T08:28:17;4.20;99.90
15556;DHT22;7879;48.660;9.116;2023-12-20T08:30:44;4.20;99.90
15556;DHT22;7879;48.660;9.116;2023-12-20T08:33:13;4.20;99.90
15556;DHT22;7879;48.660;9.116;2023-12-20T08:35:40;4.20;99.90
15556;DHT22;7879;48.660;9.116;2023-12-20T08:38:07;4.20;99.90
15556;DHT22;7879;48.660;9.116;2023-12-20T08:40:34;4.20;99.90
15556;DHT22;7879;48.660;9.116;2023-12-20T08:43:01;4.20;99.90
15556;DHT22;7879;48.660;9.116;2023-12-20T08:45:28;4.20;99.90
15556;DHT22;7879;48.660;9.116;2023-12-20T08:47:54;4.20;99.90
15556;DHT22;7879;48.660;9.116;2023-12-20T08:50:25;4.20;99.90
15556;DHT22;7879;48.660;9.116;2023-12-20T08:52:52;4.30;99.90
15556;DHT22;7879;48.660;9.116;2023-12-20T08:55:19;4.20;99.90
15556;DHT22;7879;48.660;9.116;2023-12-20T08:57:46;4.20;99.90
15556;DHT22;7879;48.660;9.116;2023-12-20T09:00:14;4.20;99.90
15556;DHT22;7879;48.660;9.116;2023-12-20T09:02:41;4.20;99.90
15556;DHT22;7879;48.660;9.116;2023-12-20T09:05:08;4.30;99.90
15556;DHT22;7879;48.660;9.116;2023-12-20T09:07:35;4.30;99.90
15556;DHT22;7879;48.660;9.116;2023-12-20T09:10:02;4.20;99.90
15556;DHT22;7879;48.660;9.116;2023-12-20T09:12:29;4.30;99.90
15556;DHT22;7879;48.660;9.116;2023-12-20T09:14:56;4.20;99.90
15556;DHT22;7879;48.660;9.116;2023-12-20T09:17:23;4.20;99.90
15556;DHT22;7879;48.660;9.116;2023-12-20T09:19:50;4.20;99.90
15556;DHT22;7879;48.660;9.116;2023-12-20T09:22:19;4.20;99.90
15556;DHT22;7879;48.660;9.116;2023-12-20T09:24:46;4.20;99.90
15556;DHT22;7879;48.660;9.116;2023-12-20T09:27:13;4.20;99.90
15556;DHT22;7879;48.660;9.116;2023-12-20T09:29:40;4.10;99.90
15556;DHT22;7879;48.660;9.116;2023-12-20T09:32:06;4.10;99.90
15556;DHT22;7879;48.660;9.116;2023-12-20T09:34:33;4.00;99.90
15556;DHT22;7879;48.660;9.116;2023-12-20T09:37:00;4.00;99.90
15556;DHT22;7879;48.660;9.116;2023-12-20T09:39:27;4.00;99.90
15556;DHT22;7879;48.660;9.116;2023-12-20T09:42:02;4.00;99.90
15556;DHT22;7879;48.660;9.116;2023-12-20T09:44:31;4.10;99.90
15556;DHT22;7879;48.660;9.116;2023-12-20T09:47:02;4.50;99.90
15556;DHT22;7879;48.660;9.116;2023-12-20T09:49:30;4.80;99.90
15556;DHT22;7879;48.660;9.116;2023-12-20T09:51:57;5.10;99.90
15556;DHT22;7879;48.660;9.116;2023-12-20T09:54:27;5.40;99.90
15556;DHT22;7879;48.660;9.116;2023-12-20T09:56:55;5.70;99.90
15556;DHT22;7879;48.660;9.116;2023-12-20T09:59:21;6.00;99.90
15556;DHT22;7879;48.660;9.116;2023-12-20T10:01:49;6.10;99.90
15556;DHT22;7879;48.660;9.116;2023-12-20T10:04:17;6.10;99.90
15556;DHT22;7879;48.660;9.116;2023-12-20T10:06:47;6.10;99.90
15556;DHT22;7879;48.660;9.116;2023-12-20T10:09:14;6.20;99.90
15556;DHT22;7879;48.660;9.116;2023-12-20T10:11:41;6.40;99.90
15556;DHT22;7879;48.660;9.116;2023-12-20T10:14:10;6.40;99.90
15556;DHT22;7879;48.660;9.116;2023-12-20T10:16:37;6.60;99.90
15556;DHT22;7879;48.660;9.116;2023-12-20T10:19:04;6.70;99.90
15556;DHT22;7879;48.660;9.116;2023-12-20T10:21:31;6.80;99.90
15556;DHT22;7879;48.660;9.116;2023-12-20T10:23:58;6.90;99.90
15556;DHT22;7879;48.660;9.116;2023-12-20T10:26:26;6.90;99.90
15556;DHT22;7879;48.660;9.116;2023-12-20T10:28:54;6.80;99.90
15556;DHT22;7879;48.660;9.116;2023-12-20T10:31:30;6.80;99.90
15556;DHT22;7879;48.660;9.116;2023-12-20T10:33:58;7.00;99.90
15556;DHT22;7879;48.660;9.116;2023-12-20T10:36:27;6.90;99.90
15556;DHT22;7879;48.660;9.116;2023-12-20T10:38:54;6.60;99.90
15556;DHT22;7879;48.660;9.116;2023-12-20T10:41:29;6.70;99.90
15556;DHT22;7879;48.660;9.116;2023-12-20T10:44:01;6.90;99.90
15556;DHT22;7879;48.660;9.116;2023-12-20T10:46:30;7.10;99.90
15556;DHT22;7879;48.660;9.116;2023-12-20T10:48:57;7.20;99.90
15556;DHT22;7879;48.660;9.116;2023-12-20T10:51:25;7.10;99.90
15556;DHT22;7879;48.660;9.116;2023-12-20T10:53:56;6.90;99.90
15556;DHT22;7879;48.660;9.116;2023-12-20T10:56:23;6.80;99.90
15556;DHT22;7879;48.660;9.116;2023-12-20T10:58:50;6.50;99.90
15556;DHT22;7879;48.660;9.116;2023-12-20T11:01:18;6.20;99.90
15556;DHT22;7879;48.660;9.116;2023-12-20T11:03:52;6.00;99.90
15556;DHT22;7879;48.660;9.116;2023-12-20T11:06:36;5.80;99.90
15556;DHT22;7879;48.660;9.116;2023-12-20T11:09:20;5.80;99.90
15556;DHT22;7879;48.660;9.116;2023-12-20T11:14:55;5.60;99.90
15556;DHT22;7879;48.660;9.116;2023-12-20T11:17:29;5.70;99.90
15556;DHT22;7879;48.660;9.116;2023-12-20T11:22:26;5.70;99.90
15556;DHT22;7879;48.660;9.116;2023-12-20T11:24:54;5.70;99.90
15556;DHT22;7879;48.660;9.116;2023-12-20T11:27:23;5.80;99.90
15556;DHT22;7879;48.660;9.116;2023-12-20T11:29:55;5.70;99.90
15556;DHT22;7879;48.660;9.116;2023-12-20T11:34:58;5.60;99.90
15556;DHT22;7879;48.660;9.116;2023-12-20T11:37:29;5.60;99.90
15556;DHT22;7879;48.660;9.116;2023-12-20T11:40:11;5.60;99.90
15556;DHT22;7879;48.660;9.116;2023-12-20T11:42:40;5.40;99.90
15556;DHT22;7879;48.660;9.116;2023-12-20T11:45:12;5.40;99.90
15556;DHT22;7879;48.660;9.116;2023-12-20T11:47:43;5.30;99.90
15556;DHT22;7879;48.660;9.116;2023-12-20T11:50:12;5.30;99.90
15556;DHT22;7879;48.660;9.116;2023-12-20T11:52:39;5.30;99.90
15556;DHT22;7879;48.660;9.116;2023-12-20T11:55:06;5.40;99.90
15556;DHT22;7879;48.660;9.116;2023-12-20T11:57:33;5.30;99.90
15556;DHT22;7879;48.660;9.116;2023-12-20T12:00:00;5.20;99.90
15556;DHT22;7879;48.660;9.116;2023-12-20T12:02:28;5.20;99.90
15556;DHT22;7879;48.660;9.116;2023-12-20T12:04:55;5.30;99.90
15556;DHT22;7879;48.660;9.116;2023-12-20T12:07:23;5.30;99.90
15556;DHT22;7879;48.660;9.116;2023-12-20T12:09:50;5.20;99.90
15556;DHT22;7879;48.660;9.116;2023-12-20T12:12:17;5.20;99.90
15556;DHT22;7879;48.660;9.116;2023-12-20T12:14:45;5.10;99.90
15556;DHT22;7879;48.660;9.116;2023-12-20T12:17:13;5.10;99.90
15556;DHT22;7879;48.660;9.116;2023-12-20T12:19:41;5.10;99.90
15556;DHT22;7879;48.660;9.116;2023-12-20T12:22:10;5.10;99.90
15556;DHT22;7879;48.660;9.116;2023-12-20T12:24:43;5.10;99.90
15556;DHT22;7879;48.660;9.116;2023-12-20T12:27:12;5.10;99.90
15556;DHT22;7879;48.660;9.116;2023-12-20T12:29:39;5.10;99.90
15556;DHT22;7879;48.660;9.116;2023-12-20T12:32:09;5.10;99.90
15556;DHT22;7879;48.660;9.116;2023-12-20T12:34:36;5.10;99.90
15556;DHT22;7879;48.660;9.116;2023-12-20T12:37:03;5.20;99.90
15556;DHT22;7879;48.660;9.116;2023-12-20T12:39:30;5.20;99.90
15556;DHT22;7879;48.660;9.116;2023-12-20T12:41:57;5.10;99.90
15556;DHT22;7879;48.660;9.116;2023-12-20T12:44:24;5.20;99.90
15556;DHT22;7879;48.660;9.116;2023-12-20T12:46:51;5.20;99.90
15556;DHT22;7879;48.660;9.116;2023-12-20T12:49:20;5.20;99.90
15556;DHT22;7879;48.660;9.116;2023-12-20T12:51:48;5.20;99.90
15556;DHT22;7879;48.660;9.116;2023-12-20T12:54:15;5.20;99.90
15556;DHT22;7879;48.660;9.116;2023-12-20T12:56:43;5.30;99.90
15556;DHT22;7879;48.660;9.116;2023-12-20T12:59:10;5.30;99.90
15556;DHT22;7879;48.660;9.116;2023-12-20T13:01:37;5.30;99.90
15556;DHT22;7879;48.660;9.116;2023-12-20T13:04:06;5.30;99.90
15556;DHT22;7879;48.660;9.116;2023-12-20T13:06:38;5.30;99.90
15556;DHT22;7879;48.660;9.116;2023-12-20T13:09:05;5.30;99.90
15556;DHT22;7879;48.660;9.116;2023-12-20T13:11:33;5.30;99.90
15556;DHT22;7879;48.660;9.116;2023-12-20T13:14:01;5.30;99.90
15556;DHT22;7879;48.660;9.116;2023-12-20T13:16:30;5.30;99.90
15556;DHT22;7879;48.660;9.116;2023-12-20T13:18:57;5.40;99.90
15556;DHT22;7879;48.660;9.116;2023-12-20T13:21:27;5.30;99.90
15556;DHT22;7879;48.660;9.116;2023-12-20T13:23:53;5.30;99.90
15556;DHT22;7879;48.660;9.116;2023-12-20T13:26:21;5.30;99.90
15556;DHT22;7879;48.660;9.116;2023-12-20T13:28:47;5.40;99.90
15556;DHT22;7879;48.660;9.116;2023-12-20T13:31:14;5.40;99.90
15556;DHT22;7879;48.660;9.116;2023-12-20T13:33:41;5.30;99.90
15556;DHT22;7879;48.660;9.116;2023-12-20T13:36:08;5.30;99.90
15556;DHT22;7879;48.660;9.116;2023-12-20T13:38:35;5.30;99.90
15556;DHT22;7879;48.660;9.116;2023-12-20T13:41:02;5.30;99.90
15556;DHT22;7879;48.660;9.116;2023-12-20T13:43:29;5.30;99.90
15556;DHT22;7879;48.660;9.116;2023-12-20T13:45:56;5.30;99.90
15556;DHT22;7879;48.660;9.116;2023-12-20T13:48:23;5.30;99.90
15556;DHT22;7879;48.660;9.116;2023-12-20T13:50:50;5.30;99.90
15556;DHT22;7879;48.660;9.116;2023-12-20T13:53:16;5.30;99.90
15556;DHT22;7879;48.660;9.116;2023-12-20T13:55:43;5.40;99.90
15556;DHT22;7879;48.660;9.116;2023-12-20T13:58:10;5.30;99.90
15556;DHT22;7879;48.660;9.116;2023-12-20T14:00:37;5.30;99.90
15556;DHT22;7879;48.660;9.116;2023-12-20T14:03:04;5.30;99.90
15556;DHT22;7879;48.660;9.116;2023-12-20T14:05:31;5.20;99.90
15556;DHT22;7879;48.660;9.116;2023-12-20T14:07:58;5.20;99.90
15556;DHT22;7879;48.660;9.116;2023-12-20T14:10:26;5.20;99.90
15556;DHT22;7879;48.660;9.116;2023-12-20T14:12:56;5.10;99.90
15556;DHT22;7879;48.660;9.116;2023-12-20T14:15:23;5.10;99.90
15556;DHT22;7879;48.660;9.116;2023-12-20T14:17:52;5.10;99.90
15556;DHT22;7879;48.660;9.116;2023-12-20T14:20:19;5.10;99.90
15556;DHT22;7879;48.660;9.116;2023-12-20T14:22:46;5.10;99.90
15556;DHT22;7879;48.660;9.116;2023-12-20T14:25:14;5.10;99.90
15556;DHT22;7879;48.660;9.116;2023-12-20T14:27:42;5.10;99.90
15556;DHT22;7879;48.660;9.116;2023-12-20T14:30:12;5.00;99.90
15556;DHT22;7879;48.660;9.116;2023-12-20T14:32:41;5.00;99.90
15556;DHT22;7879;48.660;9.116;2023-12-20T14:35:08;5.00;99.90
15556;DHT22;7879;48.660;9.116;2023-12-20T14:37:36;5.00;99.90
15556;DHT22;7879;48.660;9.116;2023-12-20T14:40:09;4.90;99.90
15556;DHT22;7879;48.660;9.116;2023-12-20T14:42:43;4.90;99.90
15556;DHT22;7879;48.660;9.116;2023-12-20T14:45:10;4.90;99.90
15556;DHT22;7879;48.660;9.116;2023-12-20T14:47:37;4.90;99.90
15556;DHT22;7879;48.660;9.116;2023-12-20T14:50:04;4.80;99.90
15556;DHT22;7879;48.660;9.116;2023-12-20T14:52:33;4.80;99.90
15556;DHT22;7879;48.660;9.116;2023-12-20T14:55:04;4.80;99.90
15556;DHT22;7879;48.660;9.116;2023-12-20T14:57:31;4.70;99.90
15556;DHT22;7879;48.660;9.116;2023-12-20T14:59:58;4.70;99.90
15556;DHT22;7879;48.660;9.116;2023-12-20T15:02:25;4.70;99.90
15556;DHT22;7879;48.660;9.116;2023-12-20T15:04:52;4.70;99.90
15556;DHT22;7879;48.660;9.116;2023-12-20T15:07:19;4.60;99.90
15556;DHT22;7879;48.660;9.116;2023-12-20T15:09:46;4.60;99.90
15556;DHT22;7879;48.660;9.116;2023-12-20T15:12:14;4.70;99.90
15556;DHT22;7879;48.660;9.116;2023-12-20T15:14:41;4.60;99.90
15556;DHT22;7879;48.660;9.116;2023-12-20T15:17:08;4.60;99.90
15556;DHT22;7879;48.660;9.116;2023-12-20T15:19:35;4.60;99.90
15556;DHT22;7879;48.660;9.116;2023-12-20T15:22:03;4.60;99.90
15556;DHT22;7879;48.660;9.116;2023-12-20T15:24:30;4.50;99.90
15556;DHT22;7879;48.660;9.116;2023-12-20T15:27:05;4.50;99.90
15556;DHT22;7879;48.660;9.116;2023-12-20T15:29:33;4.60;99.90
15556;DHT22;7879;48.660;9.116;2023-12-20T15:32:00;4.40;99.90
15556;DHT22;7879;48.660;9.116;2023-12-20T15:34:28;4.40;99.90
15556;DHT22;7879;48.660;9.116;2023-12-20T15:36:54;4.40;99.90
15556;DHT22;7879;48.660;9.116;2023-12-20T15:39:22;4.40;99.90
15556;DHT22;7879;48.660;9.116;2023-12-20T15:41:49;4.40;99.90
15556;DHT22;7879;48.660;9.116;2023-12-20T15:44:16;4.40;99.90
15556;DHT22;7879;48.660;9.116;2023-12-20T15:46:42;4.40;99.90
15556;DHT22;7879;48.660;9.116;2023-12-20T15:49:10;4.30;99.90
15556;DHT22;7879;48.660;9.116;2023-12-20T15:51:41;4.30;99.90
15556;DHT22;7879;48.660;9.116;2023-12-20T15:54:08;4.30;99.90
15556;DHT22;7879;48.660;9.116;2023-12-20T15:56:35;4.30;99.90
15556;DHT22;7879;48.660;9.116;2023-12-20T15:59:03;4.30;99.90
15556;DHT22;7879;48.660;9.116;2023-12-20T16:01:30;4.30;99.90
15556;DHT22;7879;48.660;9.116;2023-12-20T16:03:58;4.30;99.90
15556;DHT22;7879;48.660;9.116;2023-12-20T16:06:26;4.20;99.90
15556;DHT22;7879;48.660;9.116;2023-12-20T16:08:53;4.20;99.90
15556;DHT22;7879;48.660;9.116;2023-12-20T16:11:20;4.20;99.90
15556;DHT22;7879;48.660;9.116;2023-12-20T16:13:47;4.20;99.90